Time;durP1;ratioP1;P1;durP2;ratioP2;P2;SDS_P1;SDS_P2;PMS_P1;PMS_P2;Temp;Humidity;BMP_temperature;BMP_pressure;BME280_temperature;BME280_humidity;BME280_pressure;Samples;Min_cycle;Max_cycle;Signal;HPM_P1;HPM_P2
2021/07/27 00:02:10;;;;;;;7.13;5.60;;;20.20;99.90;;;;;;5038797;28;20079;-83
2021/07/27 00:04:57;;;;;;;9.27;6.55;;;20.30;99.90;;;;;;5038026;28;20450;-84
2021/07/27 00:07:25;;;;;;;8.05;6.28;;;20.00;99.90;;;;;;5039006;28;20053;-85
2021/07/27 00:10:06;;;;;;;9.75;6.05;;;20.00;99.90;;;;;;5038573;28;20049;-85
2021/07/27 00:12:42;;;;;;;7.57;6.22;;;20.00;99.90;;;;;;5039360;28;20393;-84
2021/07/27 00:15:18;;;;;;;7.55;5.97;;;20.00;99.90;;;;;;5039037;28;20111;-85
2021/07/27 00:21:59;;;;;;;8.02;6.60;;;19.90;99.90;;;;;;5036763;28;20049;-84
2021/07/27 00:24:27;;;;;;;9.43;7.00;;;19.70;99.90;;;;;;5038933;28;20232;-85
2021/07/27 00:26:58;;;;;;;9.52;7.45;;;19.60;99.90;;;;;;5038767;28;20050;-85
2021/07/27 00:39:37;;;;;;;10.38;7.03;;;19.60;99.90;;;;;;5023976;28;20057;-85
2021/07/27 00:42:17;;;;;;;10.05;6.90;;;19.60;99.90;;;;;;5036704;28;20056;-85
2021/07/27 00:45:13;;;;;;;10.90;6.65;;;19.60;99.90;;;;;;5036688;28;20498;-84
2021/07/27 00:48:02;;;;;;;8.80;7.03;;;19.60;99.90;;;;;;5038343;28;20152;-84
2021/07/27 00:50:59;;;;;;;8.80;7.43;;;19.70;99.90;;;;;;5037410;28;20085;-85
2021/07/27 00:57:14;;;;;;;11.77;7.93;;;19.60;99.90;;;;;;4977199;28;20089;-84
2021/07/27 00:59:50;;;;;;;11.98;7.93;;;19.60;99.90;;;;;;4976493;28;20500;-85
2021/07/27 01:02:53;;;;;;;15.52;7.60;;;19.60;99.90;;;;;;5036014;28;20117;-84
2021/07/27 01:05:31;;;;;;;9.07;7.57;;;19.60;99.90;;;;;;5037652;28;20057;-84
2021/07/27 01:08:16;;;;;;;9.73;7.75;;;19.60;99.90;;;;;;5036664;28;20049;-84
2021/07/27 01:10:43;;;;;;;10.40;7.68;;;19.60;99.90;;;;;;5037739;28;20050;-86
2021/07/27 01:13:12;;;;;;;11.98;8.00;;;19.60;99.90;;;;;;5036538;28;20054;-84
2021/07/27 01:15:39;;;;;;;11.00;8.23;;;19.50;99.90;;;;;;5037800;28;20072;-83
2021/07/27 01:18:10;;;;;;;10.75;7.80;;;19.50;99.90;;;;;;5037882;28;20421;-84
2021/07/27 01:39:37;;;;;;;11.20;8.00;;;19.30;99.90;;;;;;5071078;28;20075;-79
2021/07/27 01:42:11;;;;;;;8.68;6.97;;;19.20;99.90;;;;;;5071215;28;20568;-78
2021/07/27 01:44:46;;;;;;;8.82;7.25;;;19.10;99.90;;;;;;5071844;28;20045;-79
2021/07/27 01:47:14;;;;;;;9.93;7.88;;;19.00;99.90;;;;;;5071869;28;20049;-79
2021/07/27 01:49:42;;;;;;;9.57;7.93;;;19.00;99.90;;;;;;5071282;28;20230;-79
2021/07/27 01:52:13;;;;;;;10.02;8.73;;;19.00;99.90;;;;;;5070886;28;20072;-79
2021/07/27 01:54:56;;;;;;;9.80;8.15;;;19.00;99.90;;;;;;5071277;28;20067;-79
2021/07/27 01:57:27;;;;;;;;;;;19.10;99.90;;;;;;5071639;28;20084;-79
2021/07/27 02:00:12;;;;;;;8.70;7.68;;;19.10;99.90;;;;;;5071706;28;20352;-79
2021/07/27 02:02:39;;;;;;;12.13;8.68;;;19.10;99.90;;;;;;5071212;28;20052;-79
2021/07/27 02:05:09;;;;;;;11.73;8.82;;;19.10;99.90;;;;;;5070299;28;20045;-79
2021/07/27 02:07:37;;;;;;;10.07;8.95;;;19.00;99.90;;;;;;5070822;28;20049;-79
2021/07/27 02:10:08;;;;;;;11.18;8.70;;;18.90;99.90;;;;;;5070602;28;20056;-79
2021/07/27 02:12:49;;;;;;;10.15;8.55;;;18.90;99.90;;;;;;5071189;28;20045;-80
2021/07/27 02:15:20;;;;;;;12.27;10.15;;;18.90;99.90;;;;;;5071366;28;20090;-79
2021/07/27 02:17:48;;;;;;;13.20;10.27;;;18.90;99.90;;;;;;5073311;28;20075;-79
2021/07/27 02:20:15;;;;;;;12.68;9.85;;;18.90;99.90;;;;;;5071072;28;20136;-79
2021/07/27 02:22:42;;;;;;;12.40;9.90;;;19.00;99.90;;;;;;5071181;28;20474;-79
2021/07/27 02:25:11;;;;;;;11.93;10.48;;;19.10;99.90;;;;;;5070348;28;20136;-78
2021/07/27 02:27:39;;;;;;;11.95;10.25;;;19.10;99.90;;;;;;5071060;28;20052;-79
2021/07/27 02:30:08;;;;;;;11.13;9.93;;;19.10;99.90;;;;;;5070885;28;20045;-81
2021/07/27 02:32:38;;;;;;;12.43;10.25;;;19.10;99.90;;;;;;5070773;28;20064;-80
2021/07/27 02:35:08;;;;;;;12.93;10.35;;;19.10;99.90;;;;;;5070663;28;20045;-79
2021/07/27 02:37:35;;;;;;;11.82;9.65;;;19.10;99.90;;;;;;5057573;28;20053;-79
2021/07/27 02:40:03;;;;;;;13.52;9.30;;;19.10;99.90;;;;;;5057733;28;20261;-79
2021/07/27 02:42:30;;;;;;;13.65;10.48;;;19.10;99.90;;;;;;5058064;28;20141;-80
2021/07/27 02:44:58;;;;;;;13.90;10.60;;;19.00;99.90;;;;;;5056741;28;20128;-79
2021/07/27 02:47:25;;;;;;;14.43;9.95;;;19.00;99.90;;;;;;5057190;28;20049;-80
2021/07/27 02:49:52;;;;;;;14.55;10.82;;;19.00;99.90;;;;;;5057598;28;20048;-79
2021/07/27 02:52:19;;;;;;;13.93;10.82;;;18.90;99.90;;;;;;5057177;28;20505;-79
2021/07/27 02:54:46;;;;;;;15.45;11.00;;;18.80;99.90;;;;;;5056525;28;20124;-79
2021/07/27 02:57:13;;;;;;;15.38;11.00;;;18.80;99.90;;;;;;5056713;28;20136;-80
2021/07/27 02:59:40;;;;;;;13.68;11.07;;;18.70;99.90;;;;;;5056179;28;20504;-80
2021/07/27 03:02:08;;;;;;;14.65;11.63;;;18.70;99.90;;;;;;5055899;28;20055;-79
2021/07/27 03:04:35;;;;;;;14.45;11.35;;;18.60;99.90;;;;;;5056296;28;20131;-80
2021/07/27 03:07:03;;;;;;;15.73;11.55;;;18.60;99.90;;;;;;5056346;28;20383;-79
2021/07/27 03:09:31;;;;;;;13.82;11.30;;;18.60;99.90;;;;;;5058641;28;20049;-80
2021/07/27 03:11:58;;;;;;;17.38;11.38;;;18.50;99.90;;;;;;5058656;28;20113;-80
2021/07/27 03:14:25;;;;;;;16.38;12.75;;;18.50;99.90;;;;;;5059233;28;20196;-80
2021/07/27 03:16:55;;;;;;;14.30;11.40;;;18.50;99.90;;;;;;5059836;28;20553;-80
2021/07/27 03:19:23;;;;;;;17.85;12.50;;;18.40;99.90;;;;;;5059572;28;20414;-80
2021/07/27 03:21:50;;;;;;;16.15;11.68;;;18.40;99.90;;;;;;5059198;28;20083;-79
2021/07/27 03:24:17;;;;;;;17.80;12.10;;;18.40;99.90;;;;;;5059248;28;20087;-80
2021/07/27 03:26:44;;;;;;;16.85;11.60;;;18.40;99.90;;;;;;5059999;28;20127;-80
2021/07/27 03:29:10;;;;;;;15.55;12.02;;;18.50;99.90;;;;;;5059819;28;20461;-81
2021/07/27 03:31:37;;;;;;;15.73;11.93;;;18.40;99.90;;;;;;5059226;28;20124;-81
2021/07/27 03:34:04;;;;;;;16.50;12.48;;;18.40;99.90;;;;;;5058188;28;20436;-80
2021/07/27 03:36:33;;;;;;;14.55;11.30;;;18.40;99.90;;;;;;5059136;28;20076;-80
2021/07/27 03:39:00;;;;;;;17.23;12.00;;;18.40;99.90;;;;;;5060148;28;20095;-79
2021/07/27 03:41:26;;;;;;;15.13;11.00;;;18.30;99.90;;;;;;5059532;28;20395;-80
2021/07/27 03:43:53;;;;;;;17.85;11.88;;;18.30;99.90;;;;;;5058777;28;20055;-80
2021/07/27 03:46:20;;;;;;;15.75;12.65;;;18.20;99.90;;;;;;5059644;28;20099;-81
2021/07/27 03:48:47;;;;;;;15.65;11.40;;;18.20;99.90;;;;;;5059292;28;20072;-80
2021/07/27 03:51:14;;;;;;;16.02;11.35;;;18.20;99.90;;;;;;5059622;28;20080;-80
2021/07/27 03:53:43;;;;;;;13.23;10.98;;;18.10;99.90;;;;;;5059566;28;20064;-80
2021/07/27 03:56:13;;;;;;;15.48;11.57;;;18.10;99.90;;;;;;5059125;28;20073;-80
2021/07/27 03:58:42;;;;;;;15.57;10.90;;;18.10;99.90;;;;;;5058864;28;20113;-80
2021/07/27 04:01:10;;;;;;;17.13;11.05;;;18.00;99.90;;;;;;5058565;28;20144;-80
2021/07/27 04:03:37;;;;;;;17.05;10.50;;;17.90;99.90;;;;;;5057956;28;20072;-80
2021/07/27 04:06:04;;;;;;;14.73;11.02;;;18.00;99.90;;;;;;5058339;28;20041;-80
2021/07/27 04:08:31;;;;;;;13.73;11.85;;;17.90;99.90;;;;;;5059649;28;20049;-80
2021/07/27 04:11:02;;;;;;;15.93;11.15;;;18.00;99.90;;;;;;5059014;28;20080;-81
2021/07/27 04:13:31;;;;;;;16.42;11.43;;;18.00;99.90;;;;;;5059763;28;20057;-80
2021/07/27 04:16:00;;;;;;;15.65;11.27;;;17.90;99.90;;;;;;5059019;28;20045;-79
2021/07/27 04:18:27;;;;;;;18.25;11.77;;;18.00;99.90;;;;;;5058313;28;20056;-80
2021/07/27 04:20:55;;;;;;;13.80;10.95;;;18.00;99.90;;;;;;5057587;28;20497;-81
2021/07/27 04:23:22;;;;;;;14.20;10.80;;;18.00;99.90;;;;;;5058007;28;20131;-80
2021/07/27 04:25:49;;;;;;;17.23;11.48;;;18.10;99.90;;;;;;5059749;28;20056;-80
2021/07/27 04:28:17;;;;;;;14.82;9.93;;;18.20;99.90;;;;;;5059747;28;20112;-80
2021/07/27 04:30:44;;;;;;;15.25;10.38;;;18.20;99.90;;;;;;5059325;28;20075;-80
2021/07/27 04:33:11;;;;;;;14.65;9.77;;;18.30;99.90;;;;;;5058863;28;20404;-80
2021/07/27 04:35:38;;;;;;;17.83;10.48;;;18.30;99.90;;;;;;5058414;28;20549;-80
2021/07/27 04:38:05;;;;;;;13.48;9.65;;;18.40;99.90;;;;;;5058428;28;20132;-79
2021/07/27 04:40:32;;;;;;;12.85;9.27;;;18.50;99.90;;;;;;5057454;28;20075;-80
2021/07/27 04:42:59;;;;;;;15.30;9.95;;;18.50;99.90;;;;;;5058289;28;20355;-80
2021/07/27 04:45:28;;;;;;;13.95;9.35;;;18.60;99.90;;;;;;5059322;28;20135;-80
2021/07/27 04:47:55;;;;;;;14.65;9.93;;;18.70;99.90;;;;;;5057954;28;20139;-81
2021/07/27 04:50:22;;;;;;;14.13;9.98;;;18.80;99.90;;;;;;5058995;28;20053;-82
2021/07/27 04:52:52;;;;;;;12.07;9.00;;;18.80;99.90;;;;;;5059011;28;20076;-78
2021/07/27 04:55:19;;;;;;;15.00;9.98;;;18.90;99.90;;;;;;5058362;28;20063;-81
2021/07/27 04:57:46;;;;;;;11.73;9.50;;;19.00;99.90;;;;;;5058398;28;20501;-80
2021/07/27 05:00:20;;;;;;;12.98;9.57;;;19.00;99.90;;;;;;5057545;28;20083;-80
2021/07/27 05:02:48;;;;;;;12.40;9.18;;;19.00;99.90;;;;;;5058395;28;20132;-82
2021/07/27 05:05:15;;;;;;;11.45;9.32;;;19.00;99.90;;;;;;5057500;28;20051;-82
2021/07/27 05:07:42;;;;;;;18.35;9.80;;;19.00;99.90;;;;;;5055934;28;20084;-80
2021/07/27 05:10:10;;;;;;;13.73;9.75;;;19.10;99.90;;;;;;5055162;28;20053;-80
2021/07/27 05:12:37;;;;;;;14.23;9.23;;;19.10;99.90;;;;;;5054806;28;20049;-81
2021/07/27 05:15:06;;;;;;;12.18;9.15;;;19.10;99.90;;;;;;5054657;28;20059;-80
2021/07/27 05:17:33;;;;;;;14.05;8.73;;;19.00;99.90;;;;;;5053949;28;20059;-80
2021/07/27 05:20:01;;;;;;;13.90;9.57;;;19.10;99.90;;;;;;5055295;28;20144;-80
2021/07/27 05:22:28;;;;;;;13.88;9.25;;;19.00;99.90;;;;;;5054737;28;20143;-80
2021/07/27 05:24:56;;;;;;;12.25;9.52;;;19.00;99.90;;;;;;5053749;28;20056;-80
2021/07/27 05:27:23;;;;;;;12.55;9.15;;;19.00;99.90;;;;;;5054632;28;20131;-80
2021/07/27 05:29:51;;;;;;;15.13;9.50;;;19.10;99.90;;;;;;5054796;28;20476;-81
2021/07/27 05:32:18;;;;;;;12.48;8.88;;;19.10;99.90;;;;;;5054640;28;20070;-79
2021/07/27 05:34:45;;;;;;;14.48;9.48;;;19.20;99.90;;;;;;5054728;28;20120;-79
2021/07/27 05:37:13;;;;;;;13.73;8.95;;;19.20;99.90;;;;;;5053962;28;20428;-80
2021/07/27 05:39:40;;;;;;;15.63;9.27;;;19.20;99.90;;;;;;5053797;28;20057;-80
2021/07/27 05:42:07;;;;;;;14.15;9.60;;;19.30;99.90;;;;;;5054060;28;20132;-79
2021/07/27 05:44:34;;;;;;;14.18;9.65;;;19.30;99.90;;;;;;5053833;28;20080;-80
2021/07/27 05:47:02;;;;;;;19.90;10.27;;;19.40;99.90;;;;;;5053158;28;20041;-80
2021/07/27 05:49:30;;;;;;;15.45;9.45;;;19.50;99.90;;;;;;5054123;28;20084;-80
2021/07/27 05:51:57;;;;;;;19.00;9.65;;;19.50;99.90;;;;;;5054701;28;20406;-80
2021/07/27 05:54:25;;;;;;;13.63;9.73;;;19.50;99.90;;;;;;5054278;28;20048;-81
2021/07/27 05:56:54;;;;;;;18.13;10.80;;;19.50;99.90;;;;;;5057860;28;20056;-80
2021/07/27 05:59:21;;;;;;;17.45;10.45;;;19.50;99.90;;;;;;5057494;28;20095;-80
2021/07/27 06:01:49;;;;;;;15.98;10.15;;;19.50;99.90;;;;;;5056392;28;20112;-80
2021/07/27 06:04:17;;;;;;;17.40;10.05;;;19.60;99.90;;;;;;5056473;28;20446;-80
2021/07/27 06:06:44;;;;;;;21.95;10.65;;;19.60;99.90;;;;;;5058676;28;20041;-81
2021/07/27 06:09:12;;;;;;;15.65;10.23;;;19.70;99.90;;;;;;5057167;28;20045;-80
2021/07/27 06:11:40;;;;;;;14.27;10.63;;;19.80;99.90;;;;;;5059605;28;20064;-80
2021/07/27 06:14:07;;;;;;;16.40;10.93;;;19.80;99.90;;;;;;5061605;28;20091;-82
2021/07/27 06:16:36;;;;;;;13.35;10.60;;;19.90;99.90;;;;;;5061524;28;20448;-78
2021/07/27 06:19:03;;;;;;;14.65;9.85;;;20.10;99.90;;;;;;5061811;28;20052;-81
2021/07/27 06:21:30;;;;;;;13.25;9.80;;;20.30;99.90;;;;;;5061449;28;20120;-80
2021/07/27 06:23:57;;;;;;;13.57;9.63;;;20.60;99.90;;;;;;5061132;28;20566;-80
2021/07/27 06:26:23;;;;;;;12.82;10.35;;;20.80;99.90;;;;;;5061190;28;20132;-81
2021/07/27 06:28:52;;;;;;;15.18;8.90;;;21.10;99.90;;;;;;5061610;28;20085;-80
2021/07/27 06:31:18;;;;;;;13.23;9.70;;;21.30;99.90;;;;;;5060533;28;20080;-80
2021/07/27 06:33:46;;;;;;;12.65;9.65;;;21.30;99.90;;;;;;5060378;28;20052;-81
2021/07/27 06:36:14;;;;;;;14.23;9.68;;;21.30;99.90;;;;;;5059171;28;20107;-80
2021/07/27 06:38:41;;;;;;;17.40;9.82;;;21.20;99.90;;;;;;5060249;28;20055;-80
2021/07/27 06:41:09;;;;;;;15.15;10.43;;;21.10;99.90;;;;;;5059471;28;20053;-81
2021/07/27 06:43:38;;;;;;;13.18;9.65;;;21.10;99.90;;;;;;5059882;28;20117;-81
2021/07/27 06:46:06;;;;;;;11.10;8.70;;;21.10;99.90;;;;;;5059965;28;20143;-78
2021/07/27 06:48:33;;;;;;;13.20;9.13;;;21.00;99.90;;;;;;5058737;28;20061;-79
2021/07/27 06:51:08;;;;;;;12.40;9.20;;;21.00;99.90;;;;;;5058861;28;20135;-80
2021/07/27 06:53:35;;;;;;;12.20;8.80;;;21.00;99.90;;;;;;5058323;28;20055;-80
2021/07/27 06:56:02;;;;;;;10.65;8.75;;;21.10;99.90;;;;;;5058087;28;20045;-80
2021/07/27 06:58:29;;;;;;;14.13;8.65;;;21.10;99.90;;;;;;5057948;28;20049;-82
2021/07/27 07:00:56;;;;;;;11.77;9.00;;;21.20;99.90;;;;;;5057997;28;20053;-80
2021/07/27 07:03:24;;;;;;;11.20;8.50;;;21.30;99.90;;;;;;5056844;28;20049;-80
2021/07/27 07:05:51;;;;;;;11.40;9.00;;;21.50;99.90;;;;;;5056989;28;20098;-80
2021/07/27 07:08:17;;;;;;;13.13;8.70;;;21.50;99.90;;;;;;5057094;28;20127;-79
2021/07/27 07:10:44;;;;;;;13.15;8.98;;;21.50;99.90;;;;;;5056987;28;20048;-79
2021/07/27 07:13:12;;;;;;;13.45;9.13;;;21.70;99.90;;;;;;5056115;28;20052;-80
2021/07/27 07:15:39;;;;;;;12.57;8.88;;;21.50;99.90;;;;;;5055859;28;20559;-79
2021/07/27 07:18:06;;;;;;;11.63;9.27;;;21.40;99.90;;;;;;5055773;28;20130;-80
2021/07/27 07:20:34;;;;;;;17.23;9.02;;;21.40;99.90;;;;;;5061310;28;20445;-81
2021/07/27 07:23:01;;;;;;;11.80;9.68;;;21.40;99.90;;;;;;5061810;28;20108;-81
2021/07/27 07:25:28;;;;;;;12.55;9.77;;;21.30;99.90;;;;;;5073231;22;20077;-82
2021/07/27 07:27:54;;;;;;;12.73;9.02;;;21.40;99.90;;;;;;5059001;28;20518;-84
2021/07/27 07:30:21;;;;;;;12.93;9.77;;;21.50;99.90;;;;;;5057591;28;20421;-83
2021/07/27 07:32:49;;;;;;;12.10;9.98;;;21.70;99.90;;;;;;5058527;28;20520;-87
2021/07/27 07:35:17;;;;;;;12.27;9.93;;;21.80;99.90;;;;;;5059004;28;20155;-83
2021/07/27 07:37:45;;;;;;;11.25;9.55;;;21.90;99.90;;;;;;5059969;28;20068;-84
2021/07/27 07:40:13;;;;;;;13.02;9.60;;;21.90;99.90;;;;;;5060935;28;20049;-85
2021/07/27 07:42:40;;;;;;;10.80;9.43;;;22.00;99.90;;;;;;5059823;28;20516;-85
2021/07/27 07:45:07;;;;;;;12.63;9.45;;;22.20;99.90;;;;;;5058262;28;20565;-84
2021/07/27 07:47:34;;;;;;;12.77;9.65;;;22.60;99.90;;;;;;5059196;28;20490;-83
2021/07/27 07:50:01;;;;;;;12.18;9.27;;;23.00;99.90;;;;;;5059635;28;20053;-84
2021/07/27 07:52:28;;;;;;;13.80;9.60;;;23.40;99.90;;;;;;5060130;28;20079;-84
2021/07/27 07:54:56;;;;;;;13.80;9.15;;;24.00;99.90;;;;;;5058533;28;20083;-84
2021/07/27 07:57:26;;;;;;;11.52;8.93;;;24.60;99.90;;;;;;5058909;28;20413;-83
2021/07/27 07:59:53;;;;;;;12.57;8.95;;;25.30;99.90;;;;;;5057364;28;20505;-83
2021/07/27 08:02:20;;;;;;;9.85;8.70;;;25.60;99.90;;;;;;5057744;28;20087;-85
2021/07/27 08:04:47;;;;;;;11.52;8.90;;;26.00;99.90;;;;;;5057340;28;20084;-84
2021/07/27 08:07:14;;;;;;;11.27;8.98;;;26.20;99.90;;;;;;5064487;28;20081;-83
2021/07/27 08:09:40;;;;;;;10.68;8.88;;;26.50;99.90;;;;;;5065967;28;20049;-84
2021/07/27 08:12:09;;;;;;;11.20;8.73;;;26.70;99.90;;;;;;5058970;28;20049;-84
2021/07/27 08:14:36;;;;;;;10.43;8.88;;;27.30;99.90;;;;;;5059096;28;20223;-84
2021/07/27 08:17:03;;;;;;;11.70;9.75;;;27.60;99.90;;;;;;5059471;28;20115;-84
2021/07/27 08:19:31;;;;;;;12.68;9.30;;;27.80;99.90;;;;;;5059605;28;20133;-85
2021/07/27 08:21:58;;;;;;;11.82;9.48;;;27.50;99.90;;;;;;5059925;28;20136;-83
2021/07/27 08:24:25;;;;;;;11.38;9.30;;;27.40;99.90;;;;;;5058467;28;20091;-85
2021/07/27 08:26:52;;;;;;;10.82;9.73;;;27.50;99.90;;;;;;5058795;28;20482;-85
2021/07/27 08:29:20;;;;;;;10.25;9.15;;;27.20;99.90;;;;;;5059027;28;20499;-86
2021/07/27 08:31:49;;;;;;;14.88;10.10;;;27.10;99.90;;;;;;5061215;28;20108;-81
2021/07/27 08:34:18;;;;;;;12.20;9.68;;;27.00;99.90;;;;;;5057806;28;20045;-84
2021/07/27 08:36:45;;;;;;;11.55;9.77;;;27.60;99.90;;;;;;5057771;28;20557;-84
2021/07/27 08:39:12;;;;;;;10.25;9.20;;;28.10;99.90;;;;;;5057851;28;20053;-84
2021/07/27 08:41:40;;;;;;;10.55;9.45;;;28.30;99.90;;;;;;5057070;28;20426;-85
2021/07/27 08:44:17;;;;;;;10.57;9.48;;;28.40;99.90;;;;;;5057523;28;20065;-85
2021/07/27 08:46:46;;;;;;;10.63;9.15;;;28.70;99.90;;;;;;5056904;28;20112;-84
2021/07/27 08:49:15;;;;;;;13.05;9.77;;;28.80;99.90;;;;;;5060692;28;20207;-85
2021/07/27 08:51:44;;;;;;;13.13;9.23;;;28.90;99.90;;;;;;5059759;28;20572;-84
2021/07/27 08:54:10;;;;;;;10.55;9.45;;;29.30;99.90;;;;;;5041287;28;20049;-85
2021/07/27 08:56:45;;;;;;;11.77;9.55;;;29.60;99.90;;;;;;5040585;28;20573;-86
2021/07/27 08:59:12;;;;;;;12.02;9.05;;;29.50;99.90;;;;;;5045137;28;20048;-86
2021/07/27 09:01:39;;;;;;;12.43;9.50;;;29.50;99.90;;;;;;5061131;28;20053;-86
2021/07/27 09:04:07;;;;;;;10.15;9.15;;;29.40;99.90;;;;;;5060745;28;20068;-85
2021/07/27 09:06:34;;;;;;;10.25;9.25;;;29.70;99.90;;;;;;5062039;28;20047;-85
2021/07/27 09:09:05;;;;;;;10.40;9.20;;;30.10;99.90;;;;;;5062105;28;20175;-86
2021/07/27 09:11:32;;;;;;;10.57;8.98;;;29.90;99.90;;;;;;5061986;28;20045;-85
2021/07/27 09:13:59;;;;;;;10.60;8.88;;;29.80;99.90;;;;;;5061730;28;20087;-85
2021/07/27 09:16:26;;;;;;;14.48;9.75;;;29.70;99.90;;;;;;5059916;28;20092;-86
2021/07/27 09:19:00;;;;;;;10.48;9.05;;;29.30;99.90;;;;;;5060644;28;20132;-84
2021/07/27 09:21:28;;;;;;;9.57;8.57;;;29.00;99.90;;;;;;5061930;28;20064;-85
2021/07/27 09:23:55;;;;;;;10.05;9.00;;;28.70;99.90;;;;;;5060848;28;20080;-85
2021/07/27 09:26:22;;;;;;;15.98;8.80;;;28.90;99.90;;;;;;5061240;28;20424;-85
2021/07/27 09:29:00;;;;;;;10.93;9.32;;;29.20;99.90;;;;;;5060555;28;20053;-85
2021/07/27 09:31:27;;;;;;;8.82;7.93;;;29.30;99.90;;;;;;5058759;28;20044;-86
2021/07/27 09:33:54;;;;;;;15.52;9.13;;;28.90;99.90;;;;;;5059194;28;20117;-83
2021/07/27 09:36:23;;;;;;;10.18;9.15;;;28.40;99.90;;;;;;5057964;28;20440;-83
2021/07/27 09:39:01;;;;;;;11.07;9.30;;;28.10;99.90;;;;;;5060694;28;20053;-84
2021/07/27 09:41:29;;;;;;;10.70;9.40;;;27.80;99.90;;;;;;5058558;28;20132;-84
2021/07/27 09:43:57;;;;;;;10.60;9.50;;;27.80;99.90;;;;;;5062570;28;20060;-85
2021/07/27 09:46:27;;;;;;;12.68;9.00;;;27.90;99.90;;;;;;5064746;28;20075;-85
2021/07/27 09:48:54;;;;;;;10.77;9.32;;;27.90;99.90;;;;;;5059286;28;20398;-86
2021/07/27 09:51:22;;;;;;;12.27;9.55;;;27.70;99.90;;;;;;5058369;28;20045;-84
2021/07/27 09:53:49;;;;;;;12.70;9.77;;;27.50;99.90;;;;;;5055688;28;20049;-85
2021/07/27 09:56:22;;;;;;;11.68;9.88;;;27.30;99.90;;;;;;5066952;28;20045;-87
2021/07/27 09:58:57;;;;;;;11.43;9.52;;;27.10;99.90;;;;;;5072021;28;20538;-84
2021/07/27 10:01:25;;;;;;;12.73;9.55;;;27.10;99.90;;;;;;5073060;28;20051;-84
2021/07/27 10:03:58;;;;;;;10.32;8.90;;;27.30;99.90;;;;;;5068510;28;20421;-84
2021/07/27 10:06:29;;;;;;;10.90;9.68;;;27.40;99.90;;;;;;5076427;28;20088;-84
2021/07/27 10:08:57;;;;;;;11.52;9.13;;;27.70;99.90;;;;;;5064247;28;20124;-85
2021/07/27 10:11:38;;;;;;;12.18;9.27;;;27.70;99.90;;;;;;5060086;28;20112;-83
2021/07/27 10:14:07;;;;;;;10.85;9.23;;;27.90;99.90;;;;;;5062867;28;20080;-86
2021/07/27 10:16:34;;;;;;;11.65;9.48;;;28.00;99.90;;;;;;5070362;28;20045;-87
2021/07/27 10:19:12;;;;;;;10.23;9.13;;;28.00;99.90;;;;;;5064828;28;20136;-86
2021/07/27 10:21:39;;;;;;;10.77;9.05;;;28.10;99.90;;;;;;5064120;28;20052;-87
2021/07/27 10:24:14;;;;;;;10.30;9.30;;;27.70;99.90;;;;;;5063699;28;20068;-87
2021/07/27 10:26:43;;;;;;;9.55;8.07;;;27.40;99.90;;;;;;5063375;28;20053;-85
2021/07/27 10:29:10;;;;;;;9.02;7.95;;;27.40;99.90;;;;;;5063197;28;20135;-86
2021/07/27 10:31:38;;;;;;;13.13;8.25;;;27.30;99.90;;;;;;5062032;28;20135;-86
2021/07/27 10:34:06;;;;;;;11.77;8.10;;;27.20;99.90;;;;;;5062368;28;20049;-85
2021/07/27 10:36:35;;;;;;;10.43;8.82;;;26.90;99.90;;;;;;5061863;28;20136;-85
2021/07/27 10:39:13;;;;;;;9.40;8.48;;;26.70;99.90;;;;;;5063121;28;20113;-84
2021/07/27 10:41:43;;;;;;;10.15;8.57;;;26.60;99.90;;;;;;5073292;28;20064;-85
2021/07/27 10:44:13;;;;;;;11.82;8.73;;;26.40;99.90;;;;;;5077219;28;20369;-84
2021/07/27 10:46:43;;;;;;;9.65;8.55;;;26.40;99.90;;;;;;5064821;28;20490;-85
2021/07/27 10:49:19;;;;;;;12.88;8.65;;;26.60;99.90;;;;;;5063583;28;20084;-84
2021/07/27 10:51:47;;;;;;;14.02;8.63;;;26.70;99.90;;;;;;5062460;28;20148;-87
2021/07/27 10:54:15;;;;;;;11.55;8.05;;;26.70;99.90;;;;;;5062289;28;20065;-85
2021/07/27 10:57:00;;;;;;;11.13;7.95;;;26.80;99.90;;;;;;5063462;28;20045;-85
2021/07/27 10:59:30;;;;;;;9.52;8.30;;;26.90;99.90;;;;;;5063065;28;20048;-85
2021/07/27 11:01:58;;;;;;;13.00;8.38;;;26.90;99.90;;;;;;5062910;28;20049;-86
2021/07/27 11:04:28;;;;;;;13.02;8.85;;;27.10;99.90;;;;;;5063387;28;20498;-87
2021/07/27 11:07:06;;;;;;;13.77;8.65;;;27.30;99.90;;;;;;5072921;28;20076;-86
2021/07/27 11:09:33;;;;;;;8.38;7.47;;;27.40;99.90;;;;;;5071394;28;20076;-86
2021/07/27 11:12:01;;;;;;;13.65;8.10;;;27.60;99.90;;;;;;5062271;28;20104;-85
2021/07/27 11:14:28;;;;;;;10.07;8.50;;;27.50;99.90;;;;;;5062234;28;20112;-85
2021/07/27 11:16:55;;;;;;;14.55;8.52;;;27.40;99.90;;;;;;5062045;28;20045;-85
2021/07/27 11:19:25;;;;;;;12.00;8.02;;;27.30;99.90;;;;;;5062792;28;20076;-85
2021/07/27 11:21:52;;;;;;;10.48;8.25;;;27.40;99.90;;;;;;5062859;28;20076;-83
2021/07/27 11:24:20;;;;;;;11.07;8.02;;;27.50;99.90;;;;;;5062230;28;20056;-84
2021/07/27 11:26:51;;;;;;;10.27;8.32;;;27.50;99.90;;;;;;5062320;28;20045;-85
2021/07/27 11:29:20;;;;;;;11.20;8.27;;;27.60;99.90;;;;;;5062595;28;20056;-85
2021/07/27 11:31:47;;;;;;;10.35;8.10;;;27.60;99.90;;;;;;5061903;28;20073;-85
2021/07/27 11:34:14;;;;;;;10.02;8.55;;;27.70;99.90;;;;;;5062853;28;20092;-86
2021/07/27 11:36:52;;;;;;;13.02;8.30;;;27.80;99.90;;;;;;5062739;28;20113;-85
2021/07/27 11:39:19;;;;;;;11.05;9.00;;;27.80;99.90;;;;;;5061688;28;20056;-85
2021/07/27 11:41:56;;;;;;;11.30;8.18;;;27.80;99.90;;;;;;5061635;28;20049;-84
2021/07/27 11:44:25;;;;;;;10.32;7.78;;;27.70;99.90;;;;;;5062561;28;20128;-85
2021/07/27 11:46:52;;;;;;;12.68;9.10;;;27.40;99.90;;;;;;5062943;28;20104;-85
2021/07/27 11:49:19;;;;;;;8.85;7.57;;;27.30;99.90;;;;;;5063148;28;20135;-85
2021/07/27 11:51:46;;;;;;;12.35;8.40;;;27.30;99.90;;;;;;5062830;28;20132;-84
2021/07/27 11:54:24;;;;;;;9.68;7.95;;;27.30;99.90;;;;;;5060804;28;20072;-86
2021/07/27 11:56:51;;;;;;;11.93;8.63;;;27.50;99.90;;;;;;5062395;28;20049;-86
2021/07/27 11:59:27;;;;;;;8.07;7.28;;;27.50;99.90;;;;;;5062119;28;20053;-85
2021/07/27 12:01:54;;;;;;;11.82;8.23;;;27.60;99.90;;;;;;5061890;28;20112;-86
2021/07/27 12:04:21;;;;;;;12.63;8.02;;;27.60;99.90;;;;;;5062185;28;20068;-86
2021/07/27 12:06:50;;;;;;;9.63;7.15;;;27.60;99.90;;;;;;5062463;28;20127;-87
2021/07/27 12:09:17;;;;;;;10.88;7.28;;;27.50;99.90;;;;;;5061503;28;20113;-85
2021/07/27 12:11:44;;;;;;;11.02;7.32;;;27.50;99.90;;;;;;5062921;28;20081;-85
2021/07/27 12:14:11;;;;;;;9.77;6.85;;;27.50;99.90;;;;;;5061904;28;20063;-86
2021/07/27 12:16:39;;;;;;;11.77;7.80;;;27.60;99.90;;;;;;5061875;28;20056;-85
2021/07/27 12:19:09;;;;;;;7.70;6.85;;;27.70;99.90;;;;;;5061556;28;20041;-85
2021/07/27 12:21:36;;;;;;;13.23;7.80;;;27.70;99.90;;;;;;5061277;28;20072;-86
2021/07/27 12:24:02;;;;;;;8.95;7.15;;;27.60;99.90;;;;;;5060974;28;20135;-85
2021/07/27 12:26:29;;;;;;;9.52;7.45;;;27.60;99.90;;;;;;5062385;28;20080;-84
2021/07/27 12:28:56;;;;;;;9.48;6.95;;;27.60;99.90;;;;;;5069472;28;20056;-84
2021/07/27 12:31:23;;;;;;;7.85;7.05;;;27.60;99.90;;;;;;5063029;28;20080;-85
2021/07/27 12:33:52;;;;;;;9.73;7.30;;;27.60;99.90;;;;;;5062998;28;20080;-86
2021/07/27 12:36:25;;;;;;;10.65;8.07;;;27.70;99.90;;;;;;5064187;28;20051;-85
2021/07/27 12:38:51;;;;;;;8.27;7.15;;;27.60;99.90;;;;;;5066550;28;20113;-86
2021/07/27 12:41:18;;;;;;;11.82;7.80;;;27.70;99.90;;;;;;5062323;28;20128;-85
2021/07/27 12:43:45;;;;;;;11.70;7.68;;;27.90;99.90;;;;;;5062570;28;20076;-85
2021/07/27 12:46:12;;;;;;;13.38;7.47;;;28.10;99.90;;;;;;5065284;28;20049;-85
2021/07/27 12:48:39;;;;;;;7.97;7.18;;;28.20;99.90;;;;;;5061871;28;20135;-84
2021/07/27 12:51:08;;;;;;;8.10;7.18;;;28.20;99.90;;;;;;5060595;28;20148;-85
2021/07/27 12:53:35;;;;;;;11.80;7.90;;;28.20;99.90;;;;;;5060631;28;20481;-84
2021/07/27 12:56:02;;;;;;;9.93;7.65;;;28.10;99.90;;;;;;5062030;28;20531;-86
2021/07/27 12:58:29;;;;;;;12.88;7.93;;;28.10;99.90;;;;;;5061099;28;20076;-87
2021/07/27 13:00:56;;;;;;;9.82;7.32;;;28.30;99.90;;;;;;5061318;28;20049;-85
2021/07/27 13:03:22;;;;;;;10.35;7.20;;;28.20;99.90;;;;;;5060099;28;20103;-86
2021/07/27 13:05:49;;;;;;;10.85;7.22;;;28.00;99.90;;;;;;5060408;28;20077;-86
2021/07/27 13:08:18;;;;;;;12.00;7.30;;;27.80;99.90;;;;;;5060040;28;20069;-87
2021/07/27 13:10:47;;;;;;;9.85;6.93;;;27.80;99.90;;;;;;5061189;28;20072;-85
2021/07/27 13:13:14;;;;;;;11.23;7.70;;;27.70;99.90;;;;;;5059946;28;20371;-87
2021/07/27 13:15:41;;;;;;;10.57;7.70;;;27.60;99.90;;;;;;5059897;28;20511;-86
2021/07/27 13:18:08;;;;;;;11.30;7.88;;;27.60;99.90;;;;;;5059399;28;20056;-87
2021/07/27 13:20:35;;;;;;;8.93;7.35;;;27.70;99.90;;;;;;5057857;28;20053;-86
2021/07/27 13:23:02;;;;;;;12.77;7.40;;;27.80;99.90;;;;;;5055924;28;20091;-84